Time;durP1;ratioP1;P1;durP2;ratioP2;P2;SDS_P1;SDS_P2;PMS_P1;PMS_P2;Temp;Humidity;BMP_temperature;BMP_pressure;BME280_temperature;BME280_humidity;BME280_pressure;Samples;Min_cycle;Max_cycle;Signal;HPM_P1;HPM_P2
2023/01/12 00:02:24;;;;;;;19.77;2.85;;;;;;;7.99;99.17;100752.25;5075020;28;20398;-55
2023/01/12 00:04:51;;;;;;;19.60;4.00;;;;;;;7.95;99.59;100751.69;5074951;28;20119;-55
2023/01/12 00:07:19;;;;;;;15.85;3.22;;;;;;;7.78;100.00;100749.69;5074611;28;20099;-55
2023/01/12 00:09:45;;;;;;;15.43;2.67;;;;;;;7.74;100.00;100745.66;5074536;28;20556;-56
2023/01/12 00:12:12;;;;;;;19.05;3.00;;;;;;;7.83;100.00;100750.13;5074810;28;20044;-55
2023/01/12 00:14:39;;;;;;;20.52;3.05;;;;;;;7.78;100.00;100741.78;5075021;28;20048;-56
2023/01/12 00:17:07;;;;;;;16.20;2.72;;;;;;;7.73;100.00;100738.72;5074560;28;20044;-57
2023/01/12 00:19:37;;;;;;;18.45;2.97;;;;;;;7.73;100.00;100731.66;5075063;28;20406;-55
2023/01/12 00:22:11;;;;;;;15.10;2.50;;;;;;;7.74;100.00;100735.94;5074545;28;20040;-55
2023/01/12 00:24:40;;;;;;;15.35;2.63;;;;;;;7.78;100.00;100725.94;5074944;28;20048;-54
2023/01/12 00:27:09;;;;;;;16.30;2.80;;;;;;;7.76;100.00;100731.34;5074516;28;20416;-57
2023/01/12 00:29:37;;;;;;;12.77;2.78;;;;;;;7.83;100.00;100743.03;5075163;28;20048;-56
2023/01/12 00:32:05;;;;;;;17.48;2.85;;;;;;;7.90;100.00;100727.50;5074692;28;20456;-56
2023/01/12 00:34:32;;;;;;;20.77;3.22;;;;;;;7.87;100.00;100717.19;5074393;28;20045;-55
2023/01/12 00:37:00;;;;;;;20.25;2.80;;;;;;;7.86;100.00;100721.66;5074924;28;20048;-55
2023/01/12 00:39:27;;;;;;;23.73;3.45;;;;;;;7.86;100.00;100721.66;5074805;28;20048;-56
2023/01/12 00:47:27;;;;;;;19.50;2.97;;;;;;;7.84;100.00;100713.03;5076133;28;20063;-56
2023/01/12 00:49:53;;;;;;;17.30;2.50;;;;;;;7.93;100.00;100711.38;5075981;28;20551;-56
2023/01/12 00:52:21;;;;;;;16.88;3.30;;;;;;;7.87;100.00;100710.09;5076323;28;20529;-56
2023/01/12 00:54:56;;;;;;;18.92;3.15;;;;;;;7.97;100.00;100709.28;5076168;28;20045;-56
2023/01/12 00:57:23;;;;;;;20.80;3.03;;;;;;;7.99;100.00;100694.97;5075963;28;20048;-56
2023/01/12 00:59:53;;;;;;;14.40;2.50;;;;;;;7.97;100.00;100698.72;5071616;28;20455;-56
2023/01/12 01:02:20;;;;;;;19.77;3.25;;;;;;;8.00;100.00;100695.78;5056178;28;20478;-56
2023/01/12 01:04:48;;;;;;;21.05;3.22;;;;;;;8.01;100.00;100694.84;5055369;28;20532;-55
2023/01/12 01:07:16;;;;;;;15.50;2.50;;;;;;;8.07;100.00;100694.25;5054581;28;20402;-56
2023/01/12 01:09:43;;;;;;;17.52;2.72;;;;;;;8.06;100.00;100692.63;5055727;28;20544;-56
2023/01/12 01:12:09;;;;;;;20.65;2.80;;;;;;;8.04;100.00;100692.75;5056080;28;20075;-56
2023/01/12 01:14:36;;;;;;;19.73;4.22;;;;;;;8.06;100.00;100695.25;5066966;28;20044;-56
2023/01/12 01:17:03;;;;;;;21.60;2.90;;;;;;;8.09;100.00;100687.03;5076481;28;20059;-56
2023/01/12 01:19:29;;;;;;;22.60;3.50;;;;;;;8.04;100.00;100689.25;5076063;28;20489;-56
2023/01/12 01:21:56;;;;;;;16.65;3.22;;;;;;;8.12;100.00;100701.78;5075879;28;20044;-56
2023/01/12 01:24:23;;;;;;;14.75;2.75;;;;;;;8.07;99.78;100691.63;5075499;28;20117;-56
2023/01/12 01:26:50;;;;;;;24.63;2.83;;;;;;;8.14;99.93;100703.31;5075338;28;20056;-56
2023/01/12 01:29:17;;;;;;;20.85;3.08;;;;;;;8.10;99.61;100701.09;5073718;28;20057;-56
2023/01/12 01:31:46;;;;;;;15.82;2.95;;;;;;;8.16;99.13;100708.47;5073511;28;20055;-56
2023/01/12 01:34:13;;;;;;;11.25;2.40;;;;;;;8.22;98.86;100706.09;5074101;28;20094;-57
2023/01/12 01:36:40;;;;;;;18.75;2.55;;;;;;;8.21;98.87;100695.66;5074731;28;20047;-56
2023/01/12 01:39:07;;;;;;;23.10;3.25;;;;;;;8.31;98.32;100690.38;5074258;28;20045;-56
2023/01/12 01:41:34;;;;;;;13.63;2.80;;;;;;;8.27;98.87;100690.63;5072702;28;20387;-56
2023/01/12 01:44:25;;;;;;;17.02;2.72;;;;;;;8.32;98.04;100689.41;5074266;28;20048;-58
2023/01/12 01:47:03;;;;;;;25.08;3.53;;;;;;;8.35;97.61;100683.81;5076822;28;20059;-56
2023/01/12 01:52:15;;;;;;;18.92;3.13;;;;;;;8.37;97.70;100679.25;5070568;28;20383;-54
2023/01/12 01:54:47;;;;;;;12.63;2.55;;;;;;;8.41;96.21;100691.19;5070669;28;20084;-57
2023/01/12 01:57:14;;;;;;;20.52;3.20;;;;;;;8.40;96.36;100677.16;5070725;28;20045;-55
2023/01/12 01:59:47;;;;;;;18.25;3.17;;;;;;;8.39;96.49;100677.28;5070412;28;20449;-55
2023/01/12 02:02:15;;;;;;;16.63;2.65;;;;;;;8.40;96.75;100677.16;5070570;28;20041;-55
2023/01/12 02:04:41;;;;;;;23.33;3.45;;;;;;;8.35;96.14;100654.75;5070354;28;20052;-55
2023/01/12 02:07:09;;;;;;;19.27;3.17;;;;;;;8.33;96.82;100654.91;5069972;28;20052;-55
2023/01/12 02:09:37;;;;;;;21.00;3.08;;;;;;;8.33;95.45;100649.63;5070136;28;20049;-55
2023/01/12 02:18:09;;;;;;;18.80;2.78;;;;;;;8.44;95.69;100632.78;5069904;28;20049;-54
2023/01/12 02:21:00;;;;;;;18.83;3.03;;;;;;;8.39;95.31;100627.06;5069925;28;20452;-54
2023/01/12 02:23:52;;;;;;;17.70;2.67;;;;;;;8.45;94.90;100618.59;5069955;28;20052;-55
2023/01/12 02:26:55;;;;;;;18.67;3.08;;;;;;;8.43;95.27;100625.84;5069994;28;20562;-54
2023/01/12 02:32:42;;;;;;;25.42;2.67;;;;;;;8.43;94.95;100620.53;5110948;27;20391;-56
2023/01/12 02:35:34;;;;;;;18.45;3.38;;;;;;;8.42;95.33;100616.22;5111088;28;20048;-57
2023/01/12 02:38:33;;;;;;;20.67;2.80;;;;;;;8.44;94.59;100609.84;5110848;28;20055;-55
2023/01/12 02:42:39;;;;;;;20.50;3.78;;;;;;;8.45;94.20;100606.19;5110888;28;20497;-55
2023/01/12 02:44:17;;;;;;;18.40;2.58;;;;;;;8.50;94.46;100597.84;5110783;28;20048;-55
2023/01/12 02:46:50;;;;;;;18.10;3.20;;;;;;;8.42;95.47;100603.00;5110917;28;20037;-55
2023/01/12 02:49:21;;;;;;;22.38;3.13;;;;;;;8.33;96.53;100598.53;5110826;28;20418;-55
2023/01/12 02:51:54;;;;;;;22.77;3.17;;;;;;;8.44;96.03;100609.84;5110647;28;20119;-55
2023/01/12 02:54:23;;;;;;;22.50;2.75;;;;;;;8.33;97.59;100588.84;5111267;28;20071;-55
2023/01/12 02:56:53;;;;;;;18.05;2.65;;;;;;;8.30;98.29;100578.53;5110720;28;20051;-55
2023/01/12 02:59:27;;;;;;;17.17;2.63;;;;;;;8.27;98.86;100586.75;5110910;28;20036;-55
2023/01/12 03:02:01;;;;;;;17.15;2.83;;;;;;;8.26;98.52;100577.97;5118982;28;20035;-55
2023/01/12 03:04:31;;;;;;;12.02;2.45;;;;;;;8.20;98.61;100567.97;5129747;28;20039;-55
2023/01/12 03:09:40;;;;;;;17.52;2.75;;;;;;;8.21;99.07;100563.53;5110984;27;20711;-56
2023/01/12 03:12:15;;;;;;;15.15;2.83;;;;;;;8.24;99.01;100566.72;5111199;28;20047;-56
2023/01/12 03:14:46;;;;;;;24.30;3.33;;;;;;;8.18;99.74;100564.63;5111267;28;20484;-56
2023/01/12 03:17:24;;;;;;;29.15;4.05;;;;;;;8.18;100.00;100575.22;5110146;28;20052;-56
2023/01/12 03:19:53;;;;;;;18.65;2.92;;;;;;;8.16;100.00;100560.47;5111068;28;20044;-54
2023/01/12 03:22:22;;;;;;;19.52;2.50;;;;;;;8.20;99.63;100557.41;5110942;28;20507;-56
2023/01/12 03:24:56;;;;;;;21.05;3.03;;;;;;;8.20;99.67;100549.47;5110919;28;20050;-57
2023/01/12 03:27:34;;;;;;;16.95;2.50;;;;;;;8.17;100.00;100559.53;5111032;28;20048;-56
2023/01/12 03:30:11;;;;;;;16.60;2.53;;;;;;;8.18;100.00;100545.31;5110867;28;20048;-56
2023/01/12 03:32:38;;;;;;;16.42;2.13;;;;;;;8.15;100.00;100549.09;5110891;28;20048;-56
2023/01/12 03:35:07;;;;;;;18.02;3.28;;;;;;;8.11;100.00;100550.31;5110846;28;20059;-55
2023/01/12 03:37:42;;;;;;;18.92;2.78;;;;;;;8.12;100.00;100544.09;5110700;28;20036;-56
2023/01/12 03:40:13;;;;;;;23.13;2.83;;;;;;;8.14;100.00;100552.69;5110827;28;20048;-55
2023/01/12 03:42:50;;;;;;;17.67;3.15;;;;;;;8.14;100.00;100543.94;5110678;28;20040;-56
2023/01/12 03:45:40;;;;;;;9.02;2.03;;;;;;;8.18;100.00;100548.78;5110812;28;20052;-56
2023/01/12 03:48:14;;;;;;;16.42;2.75;;;;;;;8.11;100.00;100523.09;5109933;28;20048;-55
2023/01/12 03:51:00;;;;;;;17.48;2.60;;;;;;;8.14;100.00;100522.81;5110757;28;20131;-56
2023/01/12 03:53:29;;;;;;;18.48;2.83;;;;;;;8.21;100.00;100508.88;5110090;28;20043;-56
2023/01/12 03:56:03;;;;;;;24.27;2.85;;;;;;;8.18;100.00;100524.19;5110196;28;20479;-56
2023/01/12 03:58:31;;;;;;;21.52;2.67;;;;;;;8.20;100.00;100498.44;5110204;28;20138;-55
2023/01/12 04:00:59;;;;;;;14.85;2.70;;;;;;;8.24;100.00;100491.88;5110468;28;20043;-55
2023/01/12 04:03:26;;;;;;;20.95;3.13;;;;;;;8.24;99.26;100497.16;5109805;28;20044;-55
2023/01/12 04:05:53;;;;;;;14.90;2.47;;;;;;;8.22;99.98;100494.69;5110179;28;20054;-55
2023/01/12 04:08:20;;;;;;;15.75;2.95;;;;;;;8.35;98.22;100498.78;5109085;28;20484;-55
2023/01/12 04:10:46;;;;;;;15.77;2.75;;;;;;;8.46;97.52;100496.03;5110132;28;20048;-55
2023/01/12 04:13:13;;;;;;;14.85;2.70;;;;;;;8.43;98.46;100499.78;5110333;28;20114;-55
2023/01/12 04:15:41;;;;;;;15.38;2.53;;;;;;;8.39;98.56;100479.03;5109789;28;20093;-55
2023/01/12 04:18:09;;;;;;;13.23;2.40;;;;;;;8.40;97.05;100488.63;5110066;28;20050;-55
2023/01/12 04:20:36;;;;;;;17.13;2.40;;;;;;;8.45;98.16;100481.94;5098217;28;20052;-56
2023/01/12 04:23:05;;;;;;;12.38;2.33;;;;;;;8.43;98.45;100480.44;5096438;28;20054;-56
2023/01/12 04:25:33;;;;;;;17.98;2.72;;;;;;;8.42;98.20;100521.06;5096391;28;20044;-55
2023/01/12 04:28:00;;;;;;;19.02;2.53;;;;;;;8.40;99.56;100484.19;5096086;28;20048;-56
2023/01/12 04:30:29;;;;;;;13.98;2.20;;;;;;;8.38;99.02;100477.38;5096339;28;20083;-55
2023/01/12 04:32:57;;;;;;;12.38;2.35;;;;;;;8.35;100.00;100467.94;5095878;28;20072;-56
2023/01/12 04:35:25;;;;;;;11.93;2.20;;;;;;;8.30;100.00;100464.06;5095951;28;20044;-55
2023/01/12 04:37:52;;;;;;;11.02;2.17;;;;;;;8.23;100.00;100472.56;5096080;28;20052;-55
2023/01/12 04:40:19;;;;;;;14.38;2.30;;;;;;;8.25;100.00;100448.63;5095826;28;20036;-55
2023/01/12 04:43:06;;;;;;;10.68;2.38;;;;;;;8.22;100.00;100454.19;5096078;28;20044;-55
2023/01/12 04:45:38;;;;;;;17.38;2.40;;;;;;;8.22;100.00;100454.19;5095775;28;20044;-55
2023/01/12 04:48:09;;;;;;;11.10;2.47;;;;;;;8.23;100.00;100445.31;5095657;28;20479;-55
2023/01/12 04:50:37;;;;;;;15.85;2.25;;;;;;;8.16;100.00;100444.22;5095837;28;20044;-55
2023/01/12 04:53:05;;;;;;;12.07;2.20;;;;;;;8.06;100.00;100428.41;5095873;28;20054;-55
2023/01/12 04:55:35;;;;;;;10.30;2.10;;;;;;;8.13;100.00;100418.09;5095660;28;20339;-55
2023/01/12 04:58:03;;;;;;;12.07;2.30;;;;;;;8.01;100.00;100431.47;5095890;28;20052;-55
2023/01/12 05:00:30;;;;;;;11.90;2.47;;;;;;;8.07;100.00;100412.41;5095631;28;20093;-56
2023/01/12 05:02:59;;;;;;;10.00;1.80;;;;;;;8.07;100.00;100411.56;5054243;28;20044;-55
2023/01/12 05:05:27;;;;;;;17.52;2.28;;;;;;;8.02;100.00;100414.66;5073825;28;20091;-54
2023/01/12 05:10:41;;;;;;;15.75;2.33;;;;;;;7.99;100.00;100399.09;5075010;28;20079;-55
2023/01/12 05:13:08;;;;;;;10.63;1.70;;;;;;;8.05;100.00;100403.78;5074979;28;20102;-56
2023/01/12 05:15:35;;;;;;;13.52;2.67;;;;;;;7.99;100.00;100401.75;5094528;28;20051;-55
2023/01/12 05:18:01;;;;;;;15.90;2.28;;;;;;;7.98;100.00;100397.44;5094953;28;20040;-56
2023/01/12 05:20:28;;;;;;;15.10;2.28;;;;;;;7.97;100.00;100398.41;5095936;28;20485;-55
2023/01/12 05:22:55;;;;;;;5.95;1.52;;;;;;;7.99;100.00;100398.28;5096516;28;20489;-55
2023/01/12 05:25:22;;;;;;;10.52;1.83;;;;;;;7.86;100.00;100388.03;5095962;28;20074;-55
2023/01/12 05:27:48;;;;;;;10.55;2.00;;;;;;;7.78;100.00;100386.09;5096040;28;20048;-55
2023/01/12 05:30:15;;;;;;;15.77;2.28;;;;;;;7.89;100.00;100366.59;5095429;28;20044;-55
2023/01/12 05:32:42;;;;;;;16.08;2.33;;;;;;;7.82;100.00;100357.59;5094372;28;20044;-54
2023/01/12 05:35:09;;;;;;;11.10;2.10;;;;;;;7.81;100.00;100367.34;5094700;28;20044;-56
2023/01/12 05:37:35;;;;;;;14.15;3.13;;;;;;;7.84;100.00;100343.28;5094790;28;20477;-55
2023/01/12 05:40:03;;;;;;;13.18;2.13;;;;;;;7.79;100.00;100337.59;5094787;28;20044;-55
2023/01/12 05:45:16;;;;;;;7.95;1.95;;;;;;;7.78;100.00;100332.47;5094580;28;20040;-56
2023/01/12 05:47:43;;;;;;;11.40;1.90;;;;;;;7.80;100.00;100322.59;5094505;28;20489;-55
2023/01/12 05:50:10;;;;;;;9.48;1.90;;;;;;;7.80;100.00;100319.94;5094647;28;20040;-55
2023/01/12 05:52:36;;;;;;;6.78;1.70;;;;;;;7.84;100.00;100314.25;5094478;28;20531;-55
2023/01/12 05:55:04;;;;;;;11.38;2.00;;;;;;;7.82;100.00;100305.63;5094714;28;20139;-55
2023/01/12 05:57:30;;;;;;;7.43;1.80;;;;;;;7.81;100.00;100311.06;5094146;28;20097;-55
2023/01/12 05:59:57;;;;;;;9.18;2.00;;;;;;;7.82;100.00;100300.34;5094503;28;20042;-55
2023/01/12 06:02:24;;;;;;;12.27;2.00;;;;;;;7.76;100.00;100298.28;5094678;28;20543;-55
2023/01/12 06:04:50;;;;;;;18.02;2.70;;;;;;;7.82;100.00;100304.78;5093717;28;20409;-55
2023/01/12 06:07:17;;;;;;;12.50;2.13;;;;;;;7.79;100.00;100310.38;5093130;28;20044;-55
2023/01/12 06:09:44;;;;;;;6.85;1.98;;;;;;;7.83;100.00;100287.97;5093716;28;20054;-55
2023/01/12 06:14:58;;;;;;;10.43;1.85;;;;;;;7.81;100.00;100305.78;5093483;28;20097;-55
2023/01/12 06:17:24;;;;;;;7.32;1.65;;;;;;;7.75;100.00;100312.47;5094031;28;20055;-55
2023/01/12 06:19:52;;;;;;;11.43;1.85;;;;;;;7.73;100.00;100303.03;5093622;28;20040;-55
2023/01/12 06:22:18;;;;;;;15.75;2.10;;;;;;;7.75;100.00;100288.72;5093438;28;20056;-55
2023/01/12 06:24:47;;;;;;;11.50;1.95;;;;;;;7.74;100.00;100291.50;5093864;28;20050;-55
2023/01/12 06:27:15;;;;;;;14.38;2.08;;;;;;;7.78;100.00;100290.22;5093665;28;20040;-55
2023/01/12 06:29:42;;;;;;;9.98;2.00;;;;;;;7.81;100.00;100292.56;5093718;28;20093;-55
2023/01/12 06:32:09;;;;;;;13.77;2.00;;;;;;;7.79;100.00;100290.06;5093497;28;20048;-55
2023/01/12 06:34:36;;;;;;;8.95;2.00;;;;;;;7.77;100.00;100276.19;5093625;28;20048;-55
2023/01/12 06:37:06;;;;;;;6.05;1.40;;;;;;;7.79;100.00;100276.88;5093682;28;20051;-55
2023/01/12 06:39:33;;;;;;;12.52;2.40;;;;;;;7.92;100.00;100271.25;5093628;28;20044;-55
2023/01/12 06:42:31;;;;;;;12.13;2.00;;;;;;;7.91;100.00;100282.78;5093497;28;20455;-55
2023/01/12 06:44:46;;;;;;;9.07;2.00;;;;;;;7.96;100.00;100264.69;5093088;28;20046;-55
2023/01/12 06:47:14;;;;;;;12.43;1.95;;;;;;;7.98;100.00;100262.72;5093610;28;20093;-55
2023/01/12 06:49:41;;;;;;;9.73;1.80;;;;;;;7.97;100.00;100279.56;5093099;28;20393;-55
2023/01/12 06:52:08;;;;;;;9.63;2.10;;;;;;;8.01;100.00;100267.72;5093133;28;20059;-55
2023/01/12 06:54:34;;;;;;;10.63;1.70;;;;;;;8.05;100.00;100262.97;5093214;28;20079;-55
2023/01/12 06:57:01;;;;;;;10.25;2.00;;;;;;;8.00;100.00;100259.94;5093170;28;20055;-55
2023/01/12 06:59:28;;;;;;;10.77;1.90;;;;;;;7.99;100.00;100251.19;5093508;28;20040;-55
2023/01/12 07:01:54;;;;;;;10.18;2.22;;;;;;;8.03;100.00;100268.38;5071243;28;20099;-55
2023/01/12 07:04:21;;;;;;;13.45;1.95;;;;;;;8.09;100.00;100248.47;5072138;28;20064;-55
2023/01/12 07:06:48;;;;;;;8.77;2.10;;;;;;;8.04;100.00;100262.13;5072152;28;20052;-55
2023/01/12 07:09:15;;;;;;;15.20;2.30;;;;;;;8.10;100.00;100267.81;5087904;28;20052;-55
2023/01/12 07:11:41;;;;;;;12.48;3.38;;;;;;;8.15;100.00;100269.00;5073818;28;20103;-55
2023/01/12 07:14:08;;;;;;;12.88;3.25;;;;;;;8.37;100.00;100248.41;5096953;28;20413;-55
2023/01/12 07:16:35;;;;;;;11.82;3.47;;;;;;;8.68;100.00;100258.59;5105246;28;20457;-54
2023/01/12 07:19:02;;;;;;;21.95;4.68;;;;;;;8.94;100.00;100262.09;5097066;28;20040;-56
2023/01/12 07:21:28;;;;;;;20.10;3.65;;;;;;;8.86;100.00;100261.19;5099906;28;20048;-49
2023/01/12 07:23:55;;;;;;;9.82;2.03;;;;;;;8.86;100.00;100254.13;5101492;28;20044;-51
2023/01/12 07:26:22;;;;;;;13.77;2.22;;;;;;;8.58;100.00;100245.47;5103919;28;20139;-54
2023/01/12 07:28:48;;;;;;;12.35;1.95;;;;;;;8.41;100.00;100249.75;5080040;28;20047;-55
2023/01/12 07:31:15;;;;;;;14.93;2.13;;;;;;;8.30;100.00;100255.28;5108819;28;20089;-56
2023/01/12 07:33:42;;;;;;;10.15;2.00;;;;;;;8.25;100.00;100253.06;5072819;28;20497;-55
2023/01/12 07:36:08;;;;;;;44.90;16.42;;;;;;;8.33;100.00;100258.47;5111602;28;20056;-54
2023/01/12 07:38:36;;;;;;;10.90;1.88;;;;;;;8.27;100.00;100259.88;5074748;28;20524;-55
2023/01/12 07:41:03;;;;;;;16.13;2.40;;;;;;;8.27;100.00;100256.41;5104910;28;20408;-55
2023/01/12 07:43:32;;;;;;;11.88;2.10;;;;;;;8.29;100.00;100253.63;5065444;28;20058;-55
2023/01/12 07:45:59;;;;;;;12.07;1.90;;;;;;;8.26;100.00;100250.28;5101204;28;20044;-55
2023/01/12 07:48:26;;;;;;;16.77;2.97;;;;;;;8.33;100.00;100268.19;5063915;28;20045;-55
2023/01/12 07:50:53;;;;;;;10.75;2.00;;;;;;;8.35;100.00;100259.13;5092869;28;20548;-54
2023/01/12 07:53:20;;;;;;;8.90;2.28;;;;;;;8.38;100.00;100240.31;5069095;28;20505;-55
2023/01/12 07:55:47;;;;;;;10.07;2.13;;;;;;;8.41;100.00;100255.06;5099589;28;20113;-55
2023/01/12 07:58:14;;;;;;;9.00;1.75;;;;;;;8.38;100.00;100260.63;5067130;28;20060;-56
2023/01/12 08:00:40;;;;;;;12.65;2.00;;;;;;;8.44;100.00;100237.09;5102110;28;20047;-54
2023/01/12 08:03:10;;;;;;;9.15;1.65;;;;;;;8.41;100.00;100245.31;5078148;28;20056;-55
2023/01/12 08:05:37;;;;;;;11.73;3.03;;;;;;;8.43;100.00;100256.56;5095483;28;20044;-55
2023/01/12 08:08:05;;;;;;;13.73;1.73;;;;;;;8.44;100.00;100249.47;5073872;28;20049;-55
2023/01/12 08:10:32;;;;;;;12.38;1.77;;;;;;;8.48;100.00;100261.44;5096019;28;20055;-55
2023/01/12 08:12:59;;;;;;;10.15;1.60;;;;;;;8.51;100.00;100268.22;5070734;28;20040;-55
2023/01/12 08:15:28;;;;;;;14.27;2.28;;;;;;;8.50;100.00;100261.28;5100459;28;20043;-55
2023/01/12 08:18:01;;;;;;;18.08;2.92;;;;;;;8.53;100.00;100276.81;5089214;28;20048;-55
2023/01/12 08:20:33;;;;;;;12.43;1.80;;;;;;;8.51;100.00;100261.09;5099539;28;20036;-55
2023/01/12 08:23:08;;;;;;;10.57;1.92;;;;;;;8.54;100.00;100265.28;5085241;28;20052;-55
2023/01/12 08:25:43;;;;;;;9.18;1.67;;;;;;;8.50;100.00;100271.84;5086405;28;20511;-54
2023/01/12 08:28:15;;;;;;;10.35;1.85;;;;;;;8.54;100.00;100281.13;5085897;28;20048;-55
2023/01/12 08:30:46;;;;;;;8.88;1.77;;;;;;;8.48;100.00;100263.22;5095581;28;20040;-56
2023/01/12 08:33:13;;;;;;;7.57;1.60;;;;;;;8.58;100.00;100274.53;5076669;28;20056;-55
2023/01/12 08:35:40;;;;;;;6.88;1.60;;;;;;;8.62;100.00;100271.47;5082639;28;20044;-55
2023/01/12 08:38:07;;;;;;;8.65;1.80;;;;;;;8.63;100.00;100267.00;5081418;28;20067;-55
2023/01/12 08:46:07;;;;;;;10.48;1.42;;;;;;;8.68;100.00;100272.66;5101555;28;20126;-55
2023/01/12 08:48:34;;;;;;;10.88;1.65;;;;;;;8.70;100.00;100285.72;5084005;28;20494;-55
2023/01/12 08:51:03;;;;;;;11.82;1.80;;;;;;;8.74;100.00;100279.16;5095965;28;20094;-55
2023/01/12 08:53:30;;;;;;;2.95;0.93;;;;;;;8.83;100.00;100272.94;5077875;28;20100;-54
2023/01/12 08:55:57;;;;;;;7.07;1.65;;;;;;;8.77;100.00;100270.91;5084321;28;20048;-55
2023/01/12 08:58:24;;;;;;;8.80;1.70;;;;;;;8.75;100.00;100283.44;5077155;28;20049;-55
2023/01/12 09:00:51;;;;;;;5.82;1.38;;;;;;;8.83;100.00;100281.69;5094926;28;20048;-55
2023/01/12 09:03:17;;;;;;;11.65;1.60;;;;;;;8.80;100.00;100281.16;5069450;28;20051;-55
2023/01/12 09:05:44;;;;;;;5.45;1.38;;;;;;;8.85;100.00;100270.97;5088923;28;20048;-55
2023/01/12 09:08:11;;;;;;;10.13;1.45;;;;;;;8.90;100.00;100289.03;5089299;28;20060;-55
2023/01/12 09:10:38;;;;;;;5.78;1.45;;;;;;;8.85;100.00;100284.19;5110309;28;20130;-55
2023/01/12 09:13:05;;;;;;;6.85;1.30;;;;;;;8.84;100.00;100286.00;5076791;28;20052;-54
2023/01/12 09:15:32;;;;;;;8.52;1.75;;;;;;;8.88;100.00;100283.03;5079991;28;20059;-55
2023/01/12 09:17:59;;;;;;;7.47;1.50;;;;;;;8.95;100.00;100294.66;5094098;28;20492;-55
2023/01/12 09:20:26;;;;;;;5.72;1.58;;;;;;;8.93;100.00;100294.00;5075461;28;20040;-55
2023/01/12 09:22:53;;;;;;;8.35;1.33;;;;;;;8.91;100.00;100291.50;5094182;28;20055;-55
2023/01/12 09:25:20;;;;;;;7.15;1.63;;;;;;;8.96;100.00;100294.50;5065310;28;20048;-55
2023/01/12 09:27:46;;;;;;;4.10;1.40;;;;;;;9.01;100.00;100297.53;5086365;28;20108;-55
2023/01/12 09:30:13;;;;;;;5.10;2.03;;;;;;;8.97;100.00;100295.38;5070699;28;20032;-55
2023/01/12 09:32:40;;;;;;;7.30;1.58;;;;;;;8.94;100.00;100288.56;5095225;28;20052;-55
2023/01/12 09:35:07;;;;;;;10.55;1.95;;;;;;;8.94;100.00;100301.78;5063304;28;20113;-54
2023/01/12 09:37:33;;;;;;;6.40;1.58;;;;;;;8.96;100.00;100306.91;5085850;28;20044;-55
2023/01/12 09:40:02;;;;;;;8.27;1.50;;;;;;;9.08;100.00;100288.97;5068933;28;20465;-55
2023/01/12 09:48:10;;;;;;;5.90;1.48;;;;;;;9.20;100.00;100304.47;5090777;28;20085;-55
2023/01/12 09:50:45;;;;;;;6.60;1.60;;;;;;;9.22;100.00;100306.91;5072411;28;20562;-55
2023/01/12 09:53:21;;;;;;;5.40;1.80;;;;;;;9.20;100.00;100315.03;5079725;28;20051;-55
2023/01/12 09:56:01;;;;;;;8.50;1.33;;;;;;;9.22;100.00;100323.66;5080325;28;20179;-55
2023/01/12 09:59:08;;;;;;;5.93;1.30;;;;;;;9.27;100.00;100314.41;5088364;28;20043;-55
2023/01/12 10:01:36;;;;;;;6.75;1.40;;;;;;;9.31;100.00;100326.34;5094362;28;20401;-54
2023/01/12 10:04:04;;;;;;;9.25;1.90;;;;;;;9.33;100.00;100327.84;5079929;28;20044;-54
2023/01/12 10:06:33;;;;;;;4.57;1.45;;;;;;;9.27;100.00;100325.00;5090514;28;20044;-54
2023/01/12 10:09:03;;;;;;;9.05;1.70;;;;;;;9.31;100.00;100366.88;5079387;28;20059;-55
2023/01/12 10:11:41;;;;;;;6.43;1.90;;;;;;;9.36;100.00;100343.41;5088198;28;20525;-55
2023/01/12 10:14:42;;;;;;;6.18;1.70;;;;;;;9.38;100.00;100330.84;5069977;28;20035;-55
2023/01/12 10:20:20;;;;;;;7.30;1.42;;;;;;;9.41;100.00;100332.38;5101844;27;20400;-54
2023/01/12 10:22:53;;;;;;;7.18;2.22;;;;;;;9.45;100.00;100341.66;5102879;28;20093;-54
2023/01/12 10:25:28;;;;;;;9.60;1.60;;;;;;;9.39;100.00;100326.41;5089347;28;20114;-55
2023/01/12 10:27:57;;;;;;;9.55;1.60;;;;;;;9.39;100.00;100329.88;5112475;27;20052;-54
2023/01/12 10:30:30;;;;;;;8.25;1.77;;;;;;;9.46;100.00;100342.47;5078992;28;20097;-55
2023/01/12 10:33:07;;;;;;;5.93;1.50;;;;;;;9.42;100.00;100331.38;5107708;28;20043;-55
2023/01/12 10:35:34;;;;;;;6.13;1.40;;;;;;;9.38;100.00;100336.13;5084156;28;20048;-55
2023/01/12 10:38:17;;;;;;;7.28;1.63;;;;;;;9.41;100.00;100324.44;5113459;28;20035;-55
2023/01/12 10:41:02;;;;;;;8.07;1.83;;;;;;;9.43;100.00;100327.75;5084160;28;20472;-55
2023/01/12 10:43:32;;;;;;;6.80;1.52;;;;;;;9.47;100.00;100333.56;5099959;28;20078;-55
2023/01/12 10:46:09;;;;;;;6.07;1.23;;;;;;;9.49;100.00;100340.34;5078948;28;20084;-55
2023/01/12 10:48:41;;;;;;;7.03;1.52;;;;;;;9.54;100.00;100332.75;5093843;28;20084;-55
2023/01/12 10:51:29;;;;;;;11.30;2.30;;;;;;;9.54;100.00;100331.94;5096530;28;20054;-55
2023/01/12 10:54:16;;;;;;;7.38;1.60;;;;;;;9.57;100.00;100336.94;5090814;28;20116;-56
2023/01/12 10:57:02;;;;;;;3.60;1.27;;;;;;;9.56;100.00;100324.66;5084927;28;20056;-55
2023/01/12 10:59:32;;;;;;;9.15;1.67;;;;;;;9.58;100.00;100322.69;5092643;28;20039;-55
2023/01/12 11:02:11;;;;;;;5.68;1.67;;;;;;;9.60;100.00;100334.81;5085465;28;20051;-56
2023/01/12 11:04:48;;;;;;;7.95;1.70;;;;;;;9.61;100.00;100328.50;5093844;28;20032;-56
2023/01/12 11:07:27;;;;;;;3.72;1.20;;;;;;;9.58;100.00;100344.69;5087350;28;20127;-56
2023/01/12 11:09:57;;;;;;;7.20;1.58;;;;;;;9.60;100.00;100328.66;5075400;28;20028;-55
2023/01/12 11:12:34;;;;;;;4.70;1.30;;;;;;;9.55;100.00;100326.50;5095301;28;20540;-55
2023/01/12 11:15:12;;;;;;;7.43;1.63;;;;;;;9.63;100.00;100324.88;5098433;28;20036;-56
2023/01/12 11:20:43;;;;;;;8.80;1.60;;;;;;;9.56;100.00;100340.56;5090585;27;20375;-55
2023/01/12 11:23:24;;;;;;;5.50;1.38;;;;;;;9.58;100.00;100343.88;5105807;27;20097;-55
2023/01/12 11:25:53;;;;;;;4.15;1.27;;;;;;;9.57;100.00;100329.00;5090977;28;20046;-55
2023/01/12 11:28:29;;;;;;;6.65;1.70;;;;;;;9.63;100.00;100325.69;5101144;28;20116;-55
2023/01/12 11:31:04;;;;;;;7.68;1.95;;;;;;;9.66;100.00;100335.13;5092689;27;20582;-55
2023/01/12 11:33:40;;;;;;;8.93;1.92;;;;;;;9.66;100.00;100338.63;5114856;28;20401;-55
2023/01/12 11:36:13;;;;;;;7.00;1.80;;;;;;;9.62;100.00;100331.97;5091911;27;20040;-55
2023/01/12 11:38:44;;;;;;;5.75;1.50;;;;;;;9.62;100.00;100345.22;5091261;28;20398;-56
2023/01/12 11:44:52;;;;;;;7.75;1.88;;;;;;;9.59;100.00;100327.00;5100281;28;20131;-55
2023/01/12 11:47:25;;;;;;;10.15;1.80;;;;;;;9.60;100.00;100326.00;5091176;28;20082;-55
2023/01/12 11:50:16;;;;;;;9.93;1.60;;;;;;;9.70;100.00;100328.56;5095019;28;20040;-61
2023/01/12 11:52:43;;;;;;;9.90;1.80;;;;;;;9.70;100.00;100329.38;5104762;28;20050;-55
2023/01/12 11:55:14;;;;;;;13.18;2.22;;;;;;;9.82;100.00;100335.22;5095348;28;21470;-54
2023/01/12 11:58:05;;;;;;;7.28;1.60;;;;;;;9.78;100.00;100321.44;5110015;28;20036;-55
2023/01/12 12:03:54;;;;;;;7.22;1.70;;;;;;;9.84;100.00;100329.75;5154117;27;20119;-55
2023/01/12 12:09:29;;;;;;;4.95;1.40;;;;;;;9.90;100.00;100308.75;5068562;28;20386;-56
2023/01/12 12:12:02;;;;;;;7.10;1.40;;;;;;;9.83;100.00;100310.38;5024772;28;20502;-56
2023/01/12 12:14:47;;;;;;;8.10;1.50;;;;;;;9.82;100.00;100315.84;5054083;28;20053;-56
2023/01/12 12:17:41;;;;;;;7.30;1.60;;;;;;;9.89;100.00;100317.69;5028166;28;20499;-55
2023/01/12 12:20:48;;;;;;;6.82;1.45;;;;;;;9.92;100.00;100304.13;5067685;28;20059;-54
2023/01/12 12:23:30;;;;;;;6.85;1.50;;;;;;;9.94;100.00;100312.75;5038423;28;20106;-55
2023/01/12 12:26:37;;;;;;;7.90;1.70;;;;;;;9.88;100.00;100297.50;5045847;28;20170;-55
2023/01/12 12:29:43;;;;;;;5.93;1.58;;;;;;;9.89;100.00;100300.97;5046905;28;20128;-55
2023/01/12 12:32:23;;;;;;;8.18;1.70;;;;;;;9.94;100.00;100309.28;5031441;28;20649;-54
2023/01/12 12:35:11;;;;;;;7.47;1.30;;;;;;;9.90;100.00;100303.47;5047042;28;20045;-56
2023/01/12 12:37:51;;;;;;;9.45;1.50;;;;;;;9.86;100.00;100298.63;5039105;28;20033;-57